Time;durP1;ratioP1;P1;durP2;ratioP2;P2;SDS_P1;SDS_P2;PMS_P1;PMS_P2;Temp;Humidity;BMP_temperature;BMP_pressure;BME280_temperature;BME280_humidity;BME280_pressure;Samples;Min_cycle;Max_cycle;Signal;HPM_P1;HPM_P2
2022/10/17 00:01:49;;;;;;;;;;;;;;;21.76;58.71;100670.66;7287266;19;152776;-57
2022/10/17 00:04:16;;;;;;;;;;;;;;;21.76;58.84;100671.44;7282852;19;153254;-57
2022/10/17 00:06:42;;;;;;;;;;;;;;;21.77;58.61;100686.34;7285565;19;154233;-57
2022/10/17 00:09:09;;;;;;;;;;;;;;;21.78;58.69;100690.81;7285615;19;151858;-56
2022/10/17 00:11:36;;;;;;;;;;;;;;;21.78;58.88;100685.19;7282911;19;153477;-57
2022/10/17 00:14:10;;;;;;;;;;;;;;;21.78;59.18;100691.66;7284591;19;152629;-57
2022/10/17 00:16:36;;;;;;;;;;;;;;;21.79;59.10;100686.88;7292178;19;151872;-57
2022/10/17 00:19:04;;;;;;;;;;;;;;;21.78;59.06;100673.94;7284606;19;154632;-58
2022/10/17 00:21:31;;;;;;;;;;;;;;;21.78;58.80;100663.53;7286457;19;151783;-57
2022/10/17 00:23:59;;;;;;;;;;;;;;;21.80;58.72;100671.66;7286098;19;152164;-57
2022/10/17 00:26:27;;;;;;;;;;;;;;;21.80;58.88;100685.72;7281844;19;154427;-57
2022/10/17 00:28:54;;;;;;;;;;;;;;;21.81;57.84;100678.91;7284919;19;151816;-57
2022/10/17 00:31:22;;;;;;;;;;;;;;;21.78;58.53;100682.38;7285485;19;151887;-57
2022/10/17 00:33:49;;;;;;;;;;;;;;;21.78;58.01;100683.22;7284102;19;153406;-57
2022/10/17 00:36:17;;;;;;;;;;;;;;;21.78;59.12;100690.81;7285768;19;152081;-62
2022/10/17 00:38:45;;;;;;;;;;;;;;;21.79;57.88;100693.31;7289404;19;151735;-56
2022/10/17 00:41:13;;;;;;;;;;;;;;;21.77;58.81;100704.06;7282413;19;152249;-57
2022/10/17 00:43:59;;;;;;;;;;;;;;;21.74;59.88;100722.41;7284710;19;153979;-58
2022/10/17 00:46:27;;;;;;;;;;;;;;;21.75;59.45;100734.50;7284260;19;152337;-58
2022/10/17 00:48:55;;;;;;;;;;;;;;;21.77;59.21;100737.81;7285130;19;152627;-58
2022/10/17 00:51:28;;;;;;;;;;;;;;;21.73;59.83;100740.44;7285944;19;153758;-58
2022/10/17 00:53:55;;;;;;;;;;;;;;;21.73;59.56;100732.00;7281800;19;152129;-57
2022/10/17 00:56:22;;;;;;;;;;;;;;;21.73;59.88;100743.25;7281408;19;152897;-58
2022/10/17 00:58:48;;;;;;;;;;;;;;;21.72;58.85;100738.75;7282300;19;152234;-57
2022/10/17 01:01:15;;;;;;;;;;;;;;;21.76;59.01;100738.13;7292122;19;152884;-57
2022/10/17 01:03:42;;;;;;;;;;;;;;;21.77;59.47;100745.41;7278350;19;152512;-57
2022/10/17 01:06:09;;;;;;;;;;;;;;;21.77;58.37;100746.22;7284104;19;154721;-58
2022/10/17 01:08:36;;;;;;;;;;;;;;;21.76;58.90;100750.19;7285445;19;151705;-57
2022/10/17 01:11:13;;;;;;;;;;;;;;;21.74;59.31;100746.88;7280311;19;152905;-58
2022/10/17 01:14:00;;;;;;;;;;;;;;;21.73;58.77;100750.84;7280388;19;152798;-58
2022/10/17 01:16:33;;;;;;;;;;;;;;;21.73;59.07;100760.13;7283229;19;152012;-57
2022/10/17 01:18:59;;;;;;;;;;;;;;;21.74;58.78;100764.59;7281851;19;155436;-58
2022/10/17 01:21:32;;;;;;;;;;;;;;;21.73;59.39;100762.09;7283124;19;153788;-57
2022/10/17 01:24:17;;;;;;;;;;;;;;;21.72;59.35;100761.25;7291744;19;152798;-56
2022/10/17 01:26:56;;;;;;;;;;;;;;;21.74;60.03;100761.78;7281585;19;153355;-57
2022/10/17 01:29:32;;;;;;;;;;;;;;;21.74;58.89;100756.16;7283479;19;151738;-57
2022/10/17 01:32:07;;;;;;;;;;;;;;;21.74;58.48;100761.78;7286606;19;153184;-57
2022/10/17 01:34:45;;;;;;;;;;;;;;;21.74;58.93;100767.41;7282351;19;152368;-57
2022/10/17 01:37:19;;;;;;;;;;;;;;;21.73;58.57;100754.50;7283961;19;152068;-57
2022/10/17 01:39:48;;;;;;;;;;;;;;;21.75;58.77;100771.06;7281772;19;152355;-58
2022/10/17 01:42:23;;;;;;;;;;;;;;;21.74;58.56;100767.41;7282111;19;152339;-57
2022/10/17 01:45:07;;;;;;;;;;;;;;;21.75;58.16;100776.69;7281163;19;152569;-58
2022/10/17 01:47:33;;;;;;;;;;;;;;;21.73;59.20;100776.16;7290792;19;153335;-57
2022/10/17 01:50:03;;;;;;;;;;;;;;;21.73;58.47;100787.41;7283344;19;152596;-56
2022/10/17 01:52:37;;;;;;;;;;;;;;;21.74;58.25;100780.63;7284721;19;153530;-57
2022/10/17 01:55:15;;;;;;;;;;;;;;;21.73;58.18;100785.44;7279366;19;153857;-57
2022/10/17 01:57:50;;;;;;;;;;;;;;;21.72;58.60;100778.13;7282377;19;152447;-57
2022/10/17 02:00:20;;;;;;;;;;;;;;;21.72;58.57;100788.53;7282433;19;153721;-57
2022/10/17 02:02:48;;;;;;;;;;;;;;;21.70;58.23;100797.31;7279618;19;152366;-57
2022/10/17 02:05:17;;;;;;;;;;;;;;;21.71;58.54;100823.47;7281578;19;152082;-57
2022/10/17 02:07:44;;;;;;;;;;;;;;;21.69;58.28;100818.16;7284226;19;152671;-57
2022/10/17 02:10:31;;;;;;;;;;;;;;;21.69;58.28;100823.78;7286712;19;151657;-57
2022/10/17 02:13:13;;;;;;;;;;;;;;;21.68;58.47;100819.28;7282167;19;152093;-56
2022/10/17 02:15:45;;;;;;;;;;;;;;;21.67;58.56;100825.22;7279521;19;155548;-56
2022/10/17 02:18:15;;;;;;;;;;;;;;;21.67;58.37;100811.16;7281495;19;152869;-57
2022/10/17 02:20:57;;;;;;;;;;;;;;;21.67;58.76;100819.59;7282059;19;152342;-57
2022/10/17 02:23:36;;;;;;;;;;;;;;;21.65;58.69;100833.16;7281341;19;152256;-56
2022/10/17 02:26:10;;;;;;;;;;;;;;;21.64;58.82;100835.16;7278545;19;152650;-56
2022/10/17 02:28:50;;;;;;;;;;;;;;;21.64;58.43;100834.31;7283441;19;155158;-56
2022/10/17 02:31:23;;;;;;;;;;;;;;;21.62;59.03;100840.25;7287432;19;154494;-56
2022/10/17 02:34:22;;;;;;;;;;;;;;;21.62;58.91;100853.50;7282647;19;153366;-56
2022/10/17 02:36:51;;;;;;;;;;;;;;;21.61;58.60;100858.28;7278988;19;154218;-56
2022/10/17 02:39:19;;;;;;;;;;;;;;;21.61;58.84;100854.66;7278623;19;152253;-57
2022/10/17 02:41:47;;;;;;;;;;;;;;;21.59;58.68;100852.13;7281062;19;153575;-57
2022/10/17 02:44:14;;;;;;;;;;;;;;;21.58;58.74;100856.09;7280929;19;154689;-56
2022/10/17 02:46:43;;;;;;;;;;;;;;;21.58;58.87;100852.44;7281514;19;152010;-57
2022/10/17 02:49:17;;;;;;;;;;;;;;;21.58;58.69;100844.00;7281296;19;151939;-58
2022/10/17 02:51:48;;;;;;;;;;;;;;;21.56;59.17;100832.28;7281221;19;153393;-58
2022/10/17 02:54:25;;;;;;;;;;;;;;;21.56;58.97;100806.97;7289311;19;152524;-58
2022/10/17 02:56:56;;;;;;;;;;;;;;;21.54;59.33;100793.22;7276984;19;154499;-58
2022/10/17 02:59:24;;;;;;;;;;;;;;;21.53;59.45;100799.97;7277883;19;151977;-59
2022/10/17 03:01:51;;;;;;;;;;;;;;;21.54;59.59;100814.88;7281423;19;151746;-58
2022/10/17 03:04:18;;;;;;;;;;;;;;;21.54;59.46;100826.13;7277280;19;154597;-58
2022/10/17 03:06:46;;;;;;;;;;;;;;;21.53;59.51;100814.03;7281077;19;151921;-58
2022/10/17 03:09:13;;;;;;;;;;;;;;;21.53;59.65;100816.84;7282374;19;153119;-58
2022/10/17 03:11:40;;;;;;;;;;;;;;;21.53;59.74;100816.84;7276243;19;153918;-58
2022/10/17 03:14:06;;;;;;;;;;;;;;;21.53;59.74;100827.28;7277546;19;151956;-58
2022/10/17 03:16:33;;;;;;;;;;;;;;;21.52;59.89;100822.81;7287263;19;152298;-57
2022/10/17 03:18:59;;;;;;;;;;;;;;;21.52;59.53;100823.66;7279004;19;153286;-58
2022/10/17 03:21:26;;;;;;;;;;;;;;;21.51;60.00;100826.75;7279852;19;152647;-58
2022/10/17 03:23:53;;;;;;;;;;;;;;;21.51;59.52;100829.56;7280084;19;154272;-59
2022/10/17 03:26:19;;;;;;;;;;;;;;;21.50;59.88;100825.94;7276789;19;155177;-58
2022/10/17 03:28:46;;;;;;;;;;;;;;;21.50;59.60;100816.66;7281337;19;152255;-58
2022/10/17 03:31:18;;;;;;;;;;;;;;;21.49;59.61;100807.41;7278572;19;152646;-58
2022/10/17 03:33:46;;;;;;;;;;;;;;;21.48;59.87;100808.56;7281769;19;152100;-59
2022/10/17 03:36:15;;;;;;;;;;;;;;;21.49;59.74;100820.63;7286097;19;153400;-59
2022/10/17 03:38:42;;;;;;;;;;;;;;;21.48;59.71;100825.44;7293603;19;152776;-58
2022/10/17 03:41:09;;;;;;;;;;;;;;;21.48;59.85;100833.03;7282707;19;152677;-58
2022/10/17 03:43:36;;;;;;;;;;;;;;;21.47;59.62;100835.00;7284318;19;153940;-58
2022/10/17 03:46:03;;;;;;;;;;;;;;;21.47;59.79;100839.81;7284824;19;151729;-59
2022/10/17 03:48:30;;;;;;;;;;;;;;;21.46;60.05;100832.50;7288203;19;153129;-59
2022/10/17 03:50:57;;;;;;;;;;;;;;;21.45;59.64;100848.53;7284851;19;153287;-59
2022/10/17 03:53:31;;;;;;;;;;;;;;;21.45;59.74;100851.34;7287528;19;151929;-59
2022/10/17 03:56:07;;;;;;;;;;;;;;;21.44;59.84;100851.69;7282806;19;153456;-58
2022/10/17 03:58:34;;;;;;;;;;;;;;;21.44;59.80;100846.06;7286186;19;154111;-59
2022/10/17 04:01:07;;;;;;;;;;;;;;;21.43;59.56;100848.03;7292920;19;152437;-58
2022/10/17 04:03:34;;;;;;;;;;;;;;;21.42;59.76;100843.56;7284430;19;153632;-58
2022/10/17 04:06:02;;;;;;;;;;;;;;;21.42;59.90;100852.00;7284852;19;152649;-59
2022/10/17 04:08:29;;;;;;;;;;;;;;;21.42;60.20;100845.53;7285825;19;153688;-59
2022/10/17 04:10:59;;;;;;;;;;;;;;;21.41;59.77;100841.06;7279277;19;153216;-58
2022/10/17 04:13:28;;;;;;;;;;;;;;;21.40;59.82;100848.66;7287229;19;152860;-58
2022/10/17 04:15:59;;;;;;;;;;;;;;;21.39;59.73;100835.78;7282936;19;151804;-58
2022/10/17 04:18:26;;;;;;;;;;;;;;;21.39;60.15;100844.22;7285646;19;154064;-58
2022/10/17 04:20:53;;;;;;;;;;;;;;;21.37;60.24;100848.47;7293057;19;152626;-58
2022/10/17 04:23:19;;;;;;;;;;;;;;;21.36;60.30;100855.22;7284574;19;154043;-57
2022/10/17 04:25:56;;;;;;;;;;;;;;;21.37;60.41;100851.28;7281970;19;154179;-57
2022/10/17 04:28:24;;;;;;;;;;;;;;;21.37;60.70;100857.72;7286085;19;153551;-58
2022/10/17 04:30:56;;;;;;;;;;;;;;;21.37;60.76;100854.09;7283039;19;153337;-56
2022/10/17 04:33:24;;;;;;;;;;;;;;;21.36;60.51;100872.09;7286702;19;153470;-56
2022/10/17 04:35:55;;;;;;;;;;;;;;;21.36;60.80;100866.47;7280389;19;153232;-57
2022/10/17 04:38:22;;;;;;;;;;;;;;;21.36;60.59;100860.84;7285279;19;152758;-57
2022/10/17 04:40:55;;;;;;;;;;;;;;;21.36;60.50;100864.50;7281875;19;151763;-57
2022/10/17 04:43:29;;;;;;;;;;;;;;;21.34;60.90;100858.38;7293315;19;153569;-57
2022/10/17 04:45:56;;;;;;;;;;;;;;;21.35;60.74;100876.06;7283550;19;151729;-57
2022/10/17 04:48:23;;;;;;;;;;;;;;;21.35;61.11;100879.69;7286807;19;152148;-57
2022/10/17 04:50:53;;;;;;;;;;;;;;;21.35;60.78;100885.31;7283040;19;153798;-57
2022/10/17 04:53:21;;;;;;;;;;;;;;;21.35;60.99;100895.75;7285656;19;152014;-57
2022/10/17 04:55:54;;;;;;;;;;;;;;;21.35;61.15;100901.38;7280389;19;153744;-57
2022/10/17 04:58:21;;;;;;;;;;;;;;;21.34;61.22;100900.53;7285062;19;154146;-58
2022/10/17 05:00:48;;;;;;;;;;;;;;;21.34;61.36;100905.31;7281758;19;153019;-58
2022/10/17 05:03:25;;;;;;;;;;;;;;;21.33;61.55;100892.41;7283120;19;152731;-58
2022/10/17 05:05:52;;;;;;;;;;;;;;;21.33;61.50;100900.84;7288965;19;152971;-58
2022/10/17 05:08:18;;;;;;;;;;;;;;;21.33;61.27;100907.28;7286084;19;152724;-57
2022/10/17 05:10:45;;;;;;;;;;;;;;;21.31;61.70;100923.63;7279638;19;156161;-56
2022/10/17 05:13:12;;;;;;;;;;;;;;;21.32;61.89;100942.16;7284897;19;152429;-57
2022/10/17 05:15:38;;;;;;;;;;;;;;;21.33;61.70;100940.19;7282376;19;153543;-56
2022/10/17 05:18:05;;;;;;;;;;;;;;;21.32;61.99;100946.94;7284175;19;154075;-57
2022/10/17 05:20:32;;;;;;;;;;;;;;;21.33;61.97;100959.84;7279907;19;152333;-57
2022/10/17 05:22:59;;;;;;;;;;;;;;;21.31;61.61;100965.78;7284158;19;151702;-57
2022/10/17 05:25:25;;;;;;;;;;;;;;;21.31;61.95;100971.41;7279547;19;153839;-57
2022/10/17 05:27:52;;;;;;;;;;;;;;;21.31;61.58;100974.22;7292194;19;152487;-57
2022/10/17 05:30:19;;;;;;;;;;;;;;;21.31;62.15;100982.63;7282027;19;154086;-57
2022/10/17 05:32:45;;;;;;;;;;;;;;;21.31;62.14;100982.63;7284794;19;152058;-57
2022/10/17 05:35:12;;;;;;;;;;;;;;;21.31;62.07;100979.84;7283189;19;152115;-57
2022/10/17 05:37:39;;;;;;;;;;;;;;;21.30;61.69;100975.38;7283494;19;154945;-57
2022/10/17 05:40:06;;;;;;;;;;;;;;;21.29;62.62;100976.53;7279492;19;152082;-57
2022/10/17 05:42:33;;;;;;;;;;;;;;;21.27;62.89;100976.81;7282049;19;153237;-58
2022/10/17 05:45:00;;;;;;;;;;;;;;;21.27;64.13;100990.03;7282106;19;153494;-58
2022/10/17 05:47:26;;;;;;;;;;;;;;;21.29;64.34;100974.53;7284557;19;152027;-58
2022/10/17 05:49:54;;;;;;;;;;;;;;;21.33;65.17;100986.00;7286957;19;153627;-57
2022/10/17 05:52:20;;;;;;;;;;;;;;;21.36;65.19;100988.16;7283283;19;151841;-58
2022/10/17 05:54:47;;;;;;;;;;;;;;;21.37;65.97;100998.25;7281842;19;152674;-58
2022/10/17 05:57:13;;;;;;;;;;;;;;;21.43;65.98;100996.19;7279681;19;152248;-58
2022/10/17 05:59:40;;;;;;;;;;;;;;;21.47;65.54;101002.84;7280667;19;152459;-58
2022/10/17 06:02:08;;;;;;;;;;;;;;;21.51;65.49;101004.72;7284345;19;152434;-58
2022/10/17 06:04:36;;;;;;;;;;;;;;;21.56;66.00;101006.59;7279421;19;153426;-58
2022/10/17 06:07:03;;;;;;;;;;;;;;;21.60;65.87;100987.94;7284037;19;152025;-59
2022/10/17 06:09:30;;;;;;;;;;;;;;;21.66;65.58;101014.81;7279578;19;152765;-58
2022/10/17 06:11:57;;;;;;;;;;;;;;;21.69;65.56;101034.69;7287329;19;153207;-58
2022/10/17 06:14:23;;;;;;;;;;;;;;;21.74;65.58;101048.66;7282567;19;152435;-58
2022/10/17 06:16:50;;;;;;;;;;;;;;;21.79;65.23;101052.50;7280185;19;154637;-58
2022/10/17 06:19:17;;;;;;;;;;;;;;;21.82;64.67;101052.69;7280459;19;152615;-59
2022/10/17 06:21:43;;;;;;;;;;;;;;;21.87;65.39;101052.56;7282764;19;152740;-59
2022/10/17 06:24:10;;;;;;;;;;;;;;;21.91;65.71;101055.59;7281503;19;152415;-59
2022/10/17 06:26:37;;;;;;;;;;;;;;;21.98;65.28;101058.84;7279857;19;152095;-57
2022/10/17 06:29:03;;;;;;;;;;;;;;;22.01;64.57;101058.22;7282682;19;153574;-58
2022/10/17 06:31:30;;;;;;;;;;;;;;;21.99;64.21;101060.50;7288263;19;152627;-58
2022/10/17 06:33:57;;;;;;;;;;;;;;;21.98;64.07;101070.94;7283031;19;152736;-59
2022/10/17 06:36:23;;;;;;;;;;;;;;;21.99;63.56;101066.13;7278323;19;152794;-59
2022/10/17 06:38:50;;;;;;;;;;;;;;;21.98;63.20;101062.50;7281030;19;151899;-59
2022/10/17 06:41:18;;;;;;;;;;;;;;;22.00;63.11;101056.53;7279633;19;153245;-59
2022/10/17 06:43:45;;;;;;;;;;;;;;;22.01;63.25;101067.50;7280138;19;154006;-59
2022/10/17 06:46:16;;;;;;;;;;;;;;;22.05;62.90;101078.94;7280148;19;152198;-56
2022/10/17 06:48:46;;;;;;;;;;;;;;;22.03;62.53;101093.31;7281031;19;152553;-58
2022/10/17 06:51:13;;;;;;;;;;;;;;;22.04;62.15;101099.78;7279379;19;155995;-56
2022/10/17 06:53:40;;;;;;;;;;;;;;;22.03;61.93;101113.00;7290811;19;152348;-56
2022/10/17 06:56:07;;;;;;;;;;;;;;;22.03;61.80;101115.00;7278472;19;153212;-58
2022/10/17 06:58:35;;;;;;;;;;;;;;;22.03;61.75;101100.94;7283014;19;151822;-56
2022/10/17 07:01:02;;;;;;;;;;;;;;;22.03;61.35;101115.00;7276803;19;153420;-55
2022/10/17 07:03:36;;;;;;;;;;;;;;;22.04;61.57;101119.47;7279094;19;153590;-56
2022/10/17 07:06:04;;;;;;;;;;;;;;;22.05;61.33;101129.59;7275389;19;152271;-56
2022/10/17 07:08:31;;;;;;;;;;;;;;;22.03;61.65;101134.72;7282922;19;153722;-56
2022/10/17 07:10:57;;;;;;;;;;;;;;;22.03;61.67;101143.16;7282978;19;152448;-56
2022/10/17 07:13:30;;;;;;;;;;;;;;;22.02;61.59;101145.13;7289690;19;152562;-56
2022/10/17 07:16:04;;;;;;;;;;;;;;;22.03;61.65;101143.16;7293297;19;152475;-57
2022/10/17 07:18:31;;;;;;;;;;;;;;;22.04;61.64;101136.34;7288314;19;151948;-57
2022/10/17 07:20:58;;;;;;;;;;;;;;;22.07;61.33;101145.03;7284067;19;152454;-57
2022/10/17 07:23:35;;;;;;;;;;;;;;;22.09;61.04;101158.75;7286836;19;154064;-57
2022/10/17 07:26:07;;;;;;;;;;;;;;;22.09;61.07;101175.66;7283737;19;152374;-56
2022/10/17 07:28:34;;;;;;;;;;;;;;;22.09;61.36;101184.09;7283039;19;153763;-57
2022/10/17 07:31:05;;;;;;;;;;;;;;;22.08;61.14;101185.22;7288180;19;153220;-58
2022/10/17 07:33:33;;;;;;;;;;;;;;;22.09;60.96;101200.97;7287520;19;152385;-58
2022/10/17 07:36:01;;;;;;;;;;;;;;;22.08;60.89;101208.59;7285906;19;152325;-58
2022/10/17 07:38:28;;;;;;;;;;;;;;;22.08;60.86;101214.22;7293759;19;154378;-58
2022/10/17 07:40:56;;;;;;;;;;;;;;;22.10;60.59;101227.97;7282795;19;153223;-58
2022/10/17 07:43:25;;;;;;;;;;;;;;;22.11;60.32;101233.31;7287399;19;152645;-57
2022/10/17 07:45:52;;;;;;;;;;;;;;;22.10;60.43;101239.22;7283307;19;154420;-57
2022/10/17 07:48:20;;;;;;;;;;;;;;;22.08;60.36;101247.97;7287584;19;153102;-57
2022/10/17 07:50:46;;;;;;;;;;;;;;;22.05;60.55;101248.59;7281404;19;152824;-57
2022/10/17 07:53:13;;;;;;;;;;;;;;;22.05;60.67;101259.03;7288189;19;153419;-57
2022/10/17 07:55:40;;;;;;;;;;;;;;;22.04;60.88;101255.38;7284486;19;153248;-57
2022/10/17 07:58:08;;;;;;;;;;;;;;;22.03;60.66;101259.31;7286944;19;154007;-57
2022/10/17 08:00:35;;;;;;;;;;;;;;;22.03;60.79;101256.50;7292708;19;151657;-57
2022/10/17 08:03:02;;;;;;;;;;;;;;;22.02;60.92;101246.44;7283864;19;154907;-57
2022/10/17 08:05:29;;;;;;;;;;;;;;;22.02;60.91;101260.50;7285349;19;152344;-57
2022/10/17 08:07:56;;;;;;;;;;;;;;;22.01;60.93;101261.63;7286403;19;152474;-57
2022/10/17 08:10:26;;;;;;;;;;;;;;;22.02;60.67;101282.16;7283576;19;154601;-57
2022/10/17 08:12:53;;;;;;;;;;;;;;;22.02;60.71;101287.81;7285736;19;152478;-57
2022/10/17 08:15:20;;;;;;;;;;;;;;;22.02;60.36;101283.00;7286540;19;155072;-58
2022/10/17 08:17:47;;;;;;;;;;;;;;;22.01;60.67;101275.72;7287004;19;153498;-57
2022/10/17 08:20:13;;;;;;;;;;;;;;;22.02;60.61;101282.16;7282070;19;152106;-57
2022/10/17 08:22:40;;;;;;;;;;;;;;;22.03;60.56;101289.47;7292812;19;152761;-57
2022/10/17 08:25:07;;;;;;;;;;;;;;;22.02;60.17;101284.97;7285496;19;152281;-57
2022/10/17 08:27:34;;;;;;;;;;;;;;;22.02;60.27;101296.25;7285904;19;152708;-57
2022/10/17 08:30:01;;;;;;;;;;;;;;;22.02;60.11;101308.34;7285757;19;153934;-57
2022/10/17 08:32:28;;;;;;;;;;;;;;;22.03;60.25;101312.00;7286037;19;152174;-57
2022/10/17 08:34:55;;;;;;;;;;;;;;;22.03;60.21;101312.78;7286140;19;153605;-57
2022/10/17 08:37:22;;;;;;;;;;;;;;;22.03;60.15;101315.59;7283324;19;154053;-57
2022/10/17 08:39:48;;;;;;;;;;;;;;;22.04;59.89;101327.69;7285493;19;152927;-57
2022/10/17 08:42:34;;;;;;;;;;;;;;;22.04;59.65;101327.69;7291365;19;152230;-57
2022/10/17 08:45:03;;;;;;;;;;;;;;;22.04;59.61;101336.97;7285365;19;152014;-57
2022/10/17 08:47:34;;;;;;;;;;;;;;;22.03;59.54;101338.13;7286338;19;153234;-57
2022/10/17 08:50:03;;;;;;;;;;;;;;;22.04;59.46;101336.97;7283786;19;155377;-57
2022/10/17 08:52:39;;;;;;;;;;;;;;;22.04;59.45;101339.78;7284813;19;152459;-57
2022/10/17 08:55:16;;;;;;;;;;;;;;;22.03;59.72;101355.00;7284589;19;152042;-57
2022/10/17 08:57:47;;;;;;;;;;;;;;;22.03;59.42;101366.25;7284674;19;152639;-57
2022/10/17 09:00:18;;;;;;;;;;;;;;;22.03;59.91;101373.91;7282434;19;152289;-58
2022/10/17 09:03:03;;;;;;;;;;;;;;;22.02;59.88;101367.44;7285746;19;151972;-58
2022/10/17 09:05:34;;;;;;;;;;;;;;;22.02;59.61;101384.31;7289725;19;152641;-57
2022/10/17 09:08:03;;;;;;;;;;;;;;;22.01;59.45;101384.59;7284400;19;152362;-58
2022/10/17 09:10:30;;;;;;;;;;;;;;;22.01;59.58;101381.78;7281304;19;154334;-57
2022/10/17 09:13:15;;;;;;;;;;;;;;;22.00;59.49;101397.84;7284707;19;152509;-57
2022/10/17 09:15:49;;;;;;;;;;;;;;;21.98;59.93;101393.69;7283265;19;153818;-57
2022/10/17 09:18:15;;;;;;;;;;;;;;;21.98;59.72;101393.69;7284687;19;153785;-57
2022/10/17 09:20:51;;;;;;;;;;;;;;;21.96;59.99;101384.69;7278064;19;152441;-57
2022/10/17 09:23:22;;;;;;;;;;;;;;;21.96;60.00;101391.16;7286132;19;153134;-57
2022/10/17 09:25:59;;;;;;;;;;;;;;;21.95;59.92;101403.53;7281750;19;154126;-56
2022/10/17 09:28:37;;;;;;;;;;;;;;;21.95;59.90;101408.34;7293457;19;152110;-57
2022/10/17 09:31:10;;;;;;;;;;;;;;;21.89;60.44;101406.75;7280926;19;153145;-57
2022/10/17 09:33:39;;;;;;;;;;;;;;;21.76;60.84;101402.69;7276206;19;152839;-58
2022/10/17 09:36:35;;;;;;;;;;;;;;;21.80;60.18;101411.38;7279904;19;153888;-58
2022/10/17 09:39:10;;;;;;;;;;;;;;;21.81;60.57;101411.06;7273834;19;153590;-58
2022/10/17 09:41:41;;;;;;;;;;;;;;;21.82;60.25;101414.72;7273495;19;153407;-58
2022/10/17 09:44:17;;;;;;;;;;;;;;;21.82;60.29;101423.16;7276437;19;152258;-58
2022/10/17 09:46:54;;;;;;;;;;;;;;;21.82;59.93;101431.59;7276189;19;153667;-58
2022/10/17 09:49:32;;;;;;;;;;;;;;;21.81;60.05;101435.53;7271473;19;152835;-58
2022/10/17 09:52:03;;;;;;;;;;;;;;;21.81;59.85;101432.72;7275791;19;153879;-58
2022/10/17 09:54:39;;;;;;;;;;;;;;;21.79;59.74;101433.06;7272104;19;152390;-58
2022/10/17 09:57:08;;;;;;;;;;;;;;;21.80;59.68;101439.53;7277102;19;152698;-58
2022/10/17 10:00:04;;;;;;;;;;;;;;;21.79;59.64;101452.75;7273892;19;153203;-58
2022/10/17 10:02:35;;;;;;;;;;;;;;;21.78;59.45;101453.88;7274873;19;152426;-58
2022/10/17 10:05:06;;;;;;;;;;;;;;;21.78;59.75;101469.91;7275502;19;152021;-58
2022/10/17 10:07:37;;;;;;;;;;;;;;;21.77;59.39;101468.22;7274717;19;154539;-58
2022/10/17 10:10:22;;;;;;;;;;;;;;;21.74;59.27;101478.13;7278656;19;152506;-58
2022/10/17 10:13:13;;;;;;;;;;;;;;;21.74;59.65;101480.94;7278738;19;152597;-58
2022/10/17 10:15:44;;;;;;;;;;;;;;;21.73;59.25;101488.53;7283436;19;153399;-58
2022/10/17 10:18:26;;;;;;;;;;;;;;;21.71;59.52;101492.81;7275221;19;153821;-58
2022/10/17 10:21:01;;;;;;;;;;;;;;;21.70;59.10;101500.41;7272711;19;154272;-58
2022/10/17 10:23:39;;;;;;;;;;;;;;;21.70;58.95;101508.00;7278822;19;152100;-58
2022/10/17 10:26:15;;;;;;;;;;;;;;;21.69;59.36;101500.69;7275076;19;153488;-58
2022/10/17 10:28:55;;;;;;;;;;;;;;;21.67;59.21;101503.81;7276258;19;154215;-59
2022/10/17 10:31:27;;;;;;;;;;;;;;;21.67;59.23;101508.59;7277471;19;152803;-58
2022/10/17 10:33:54;;;;;;;;;;;;;;;21.65;59.32;101513.69;7277173;19;153203;-58
2022/10/17 10:36:23;;;;;;;;;;;;;;;21.64;59.20;101524.09;7277268;19;154208;-59
2022/10/17 10:38:55;;;;;;;;;;;;;;;21.62;59.00;101528.38;7283458;19;153023;-59
2022/10/17 10:41:44;;;;;;;;;;;;;;;21.61;58.74;101535.97;7278754;19;152727;-58
2022/10/17 10:44:13;;;;;;;;;;;;;;;21.60;58.91;101539.91;7277710;19;152019;-58
2022/10/17 10:46:42;;;;;;;;;;;;;;;21.59;59.01;101543.03;7281270;19;153339;-58
2022/10/17 10:49:28;;;;;;;;;;;;;;;21.58;58.55;101544.16;7279600;19;153673;-58
2022/10/17 10:51:56;;;;;;;;;;;;;;;21.57;58.42;101539.69;7271686;19;152314;-58
2022/10/17 10:54:38;;;;;;;;;;;;;;;21.55;58.43;101544.75;7277538;19;152602;-58
2022/10/17 10:57:08;;;;;;;;;;;;;;;21.53;58.95;101549.88;7276371;19;156479;-58
2022/10/17 10:59:58;;;;;;;;;;;;;;;21.51;58.62;101547.34;7284756;19;153550;-58
2022/10/17 11:02:39;;;;;;;;;;;;;;;21.52;58.66;101557.47;7267229;19;152714;-58
2022/10/17 11:05:19;;;;;;;;;;;;;;;21.50;58.24;101568.16;7275367;19;152251;-58
2022/10/17 11:07:54;;;;;;;;;;;;;;;21.49;58.31;101574.91;7262963;19;153710;-58
2022/10/17 11:10:29;;;;;;;;;;;;;;;21.48;58.28;101580.84;7273103;19;152208;-58
2022/10/17 11:13:04;;;;;;;;;;;;;;;21.46;58.51;101575.53;7270602;19;153739;-58
2022/10/17 11:15:36;;;;;;;;;;;;;;;21.45;58.07;101582.28;7264420;19;153414;-58
2022/10/17 11:18:05;;;;;;;;;;;;;;;21.45;58.25;101587.91;7279222;19;153552;-58
2022/10/17 11:20:51;;;;;;;;;;;;;;;21.44;57.87;101594.66;7277171;19;152448;-58
2022/10/17 11:23:39;;;;;;;;;;;;;;;21.43;58.11;101595.81;7286248;19;153407;-58
2022/10/17 11:26:24;;;;;;;;;;;;;;;21.42;57.82;101599.75;7277515;19;152196;-58
2022/10/17 11:29:02;;;;;;;;;;;;;;;21.41;58.01;101602.84;7278663;19;152819;-58
2022/10/17 11:31:31;;;;;;;;;;;;;;;21.40;58.11;101603.97;7277756;19;154267;-58
2022/10/17 11:34:18;;;;;;;;;;;;;;;21.40;57.71;101610.44;7278090;19;152629;-58
2022/10/17 11:36:46;;;;;;;;;;;;;;;21.40;57.58;101618.03;7277035;19;153241;-58
2022/10/17 11:39:16;;;;;;;;;;;;;;;21.38;57.82;101620.31;7273592;19;156406;-58
2022/10/17 11:41:56;;;;;;;;;;;;;;;21.37;57.56;101627.91;7278748;19;152093;-58
2022/10/17 11:44:37;;;;;;;;;;;;;;;21.36;57.50;101629.03;7275115;19;152766;-58
2022/10/17 11:47:05;;;;;;;;;;;;;;;21.34;57.52;101634.16;7286177;19;155544;-58
2022/10/17 11:49:46;;;;;;;;;;;;;;;21.35;57.59;101632.97;7276154;19;153580;-58
2022/10/17 11:52:16;;;;;;;;;;;;;;;21.34;57.84;101636.97;7271329;19;153049;-58
2022/10/17 11:55:20;;;;;;;;;;;;;;;21.34;57.44;101638.94;7276493;19;152983;-58
2022/10/17 11:58:12;;;;;;;;;;;;;;;21.33;57.69;101642.88;7276409;19;152943;-58
2022/10/17 12:00:45;;;;;;;;;;;;;;;21.33;57.37;101640.06;7270099;19;153452;-58
2022/10/17 12:03:34;;;;;;;;;;;;;;;21.32;57.64;101644.84;7277813;19;152265;-58
2022/10/17 12:06:01;;;;;;;;;;;;;;;21.33;57.39;101638.09;7266677;19;155167;-58
2022/10/17 12:08:33;;;;;;;;;;;;;;;21.34;57.23;101641.75;7276666;19;153525;-58
2022/10/17 12:11:05;;;;;;;;;;;;;;;21.32;57.37;101644.84;7280216;19;152847;-59
2022/10/17 12:13:32;;;;;;;;;;;;;;;21.33;57.17;101643.72;7274487;19;152581;-58
2022/10/17 12:16:17;;;;;;;;;;;;;;;21.33;56.94;101640.91;7276491;19;153339;-58
2022/10/17 12:18:49;;;;;;;;;;;;;;;21.33;57.23;101662.53;7277867;19;152568;-60
2022/10/17 12:21:16;;;;;;;;;;;;;;;21.33;57.14;101663.38;7275550;19;152661;-59
2022/10/17 12:23:53;;;;;;;;;;;;;;;21.32;57.23;101660.84;7282092;19;154196;-59
2022/10/17 12:26:27;;;;;;;;;;;;;;;21.31;57.11;101657.22;7279882;19;152606;-59
2022/10/17 12:28:55;;;;;;;;;;;;;;;21.30;56.73;101655.56;7275330;19;152662;-59
2022/10/17 12:31:24;;;;;;;;;;;;;;;21.29;56.94;101656.69;7271914;19;152978;-59
2022/10/17 12:33:59;;;;;;;;;;;;;;;21.28;56.99;101655.00;7282371;19;153351;-59
2022/10/17 12:36:25;;;;;;;;;;;;;;;21.29;56.72;101659.50;7267921;19;152354;-59
2022/10/17 12:39:01;;;;;;;;;;;;;;;21.28;56.89;101652.19;7272533;19;152515;-59
2022/10/17 12:41:36;;;;;;;;;;;;;;;21.28;56.93;101647.41;7273956;19;154199;-57
2022/10/17 12:44:12;;;;;;;;;;;;;;;21.30;56.83;101647.13;7277322;19;154852;-59
2022/10/17 12:46:43;;;;;;;;;;;;;;;21.29;56.98;101653.88;7279175;19;153819;-59
2022/10/17 12:49:20;;;;;;;;;;;;;;;21.29;56.64;101651.91;7278522;19;153915;-59